createdAt,value
2023-01-01T00:01:49.467Z,16.83
2023-01-01T00:04:17.082Z,16.87
2023-01-01T00:06:46.190Z,17.00
2023-01-01T00:09:31.315Z,16.66
2023-01-01T00:11:58.748Z,16.67
2023-01-01T00:14:26.760Z,16.77
2023-01-01T00:16:55.569Z,16.92
2023-01-01T00:19:23.317Z,16.81
2023-01-01T00:21:52.065Z,16.78
2023-01-01T00:24:19.495Z,17.04
2023-01-01T00:26:47.429Z,16.67
2023-01-01T00:29:14.936Z,17.11
2023-01-01T00:31:42.455Z,16.82
2023-01-01T00:34:11.068Z,16.78
2023-01-01T00:36:38.561Z,17.11
2023-01-01T00:39:07.299Z,16.72
2023-01-01T00:41:34.713Z,16.84
2023-01-01T00:44:02.343Z,17.02
2023-01-01T00:46:30.004Z,17.22
2023-01-01T00:48:57.560Z,17.02
2023-01-01T00:51:25.015Z,16.80
2023-01-01T00:53:52.448Z,16.93
2023-01-01T00:56:21.230Z,16.68
2023-01-01T00:59:00.623Z,17.05
2023-01-01T01:01:29.202Z,16.75
2023-01-01T01:03:56.747Z,16.86
2023-01-01T01:06:24.420Z,16.88
2023-01-01T01:08:51.868Z,17.02
2023-01-01T01:11:22.736Z,16.72
2023-01-01T01:13:52.518Z,16.68
2023-01-01T01:16:22.554Z,17.22
2023-01-01T01:18:51.612Z,17.35
2023-01-01T01:21:20.648Z,17.06
2023-01-01T01:23:48.776Z,17.21
2023-01-01T01:26:18.110Z,17.24
2023-01-01T01:28:49.670Z,16.90
2023-01-01T01:31:18.673Z,17.09
2023-01-01T01:33:47.281Z,17.28
2023-01-01T01:36:16.083Z,17.10
2023-01-01T01:38:43.989Z,16.98
2023-01-01T01:41:26.745Z,17.19
2023-01-01T01:43:58.944Z,16.93
2023-01-01T01:46:33.401Z,17.11
2023-01-01T01:49:05.882Z,17.12
2023-01-01T01:51:37.193Z,16.87
2023-01-01T01:54:10.095Z,16.99
2023-01-01T01:56:46.685Z,17.18
2023-01-01T01:59:16.795Z,17.26
2023-01-01T02:01:44.366Z,17.61
2023-01-01T02:04:13.379Z,17.40
2023-01-01T02:06:41.239Z,17.12
2023-01-01T02:09:10.620Z,17.26
2023-01-01T02:11:38.593Z,17.02
2023-01-01T02:14:06.839Z,17.21
2023-01-01T02:16:40.466Z,17.24
2023-01-01T02:19:18.259Z,17.34
2023-01-01T02:21:57.604Z,17.41
2023-01-01T02:24:41.049Z,17.28
2023-01-01T02:27:18.800Z,17.49
2023-01-01T02:29:52.942Z,17.73
2023-01-01T02:32:24.232Z,17.57
2023-01-01T02:34:58.211Z,16.88
2023-01-01T02:37:28.122Z,16.77
2023-01-01T02:39:59.011Z,16.77
2023-01-01T02:42:29.931Z,16.91
2023-01-01T02:45:00.157Z,16.83
2023-01-01T02:47:27.724Z,16.45
2023-01-01T02:50:00.216Z,16.92
2023-01-01T02:52:57.880Z,16.89
2023-01-01T02:55:37.104Z,16.85
2023-01-01T02:58:31.461Z,17.33
2023-01-01T03:01:09.705Z,17.41
2023-01-01T03:03:42.129Z,16.95
2023-01-01T03:06:23.913Z,16.72
2023-01-01T03:08:58.935Z,17.09
2023-01-01T03:11:36.474Z,16.76
2023-01-01T03:14:09.364Z,17.01
2023-01-01T03:16:43.056Z,17.23
2023-01-01T03:19:14.842Z,17.11
2023-01-01T03:21:45.515Z,16.68
2023-01-01T03:24:18.314Z,17.04
2023-01-01T03:26:49.500Z,17.32
2023-01-01T03:29:18.557Z,17.22
2023-01-01T03:31:51.930Z,17.00
2023-01-01T03:34:23.365Z,16.84
2023-01-01T03:36:55.360Z,16.92
2023-01-01T03:39:26.706Z,16.93
2023-01-01T03:42:03.191Z,16.95
2023-01-01T03:44:34.965Z,16.81
2023-01-01T03:47:06.162Z,17.04
2023-01-01T03:49:34.831Z,17.10
2023-01-01T03:52:15.370Z,16.94
2023-01-01T03:54:56.758Z,16.93
2023-01-01T03:57:34.860Z,16.93
2023-01-01T04:00:08.094Z,16.69
2023-01-01T04:02:41.748Z,17.03
2023-01-01T04:05:11.157Z,17.26
2023-01-01T04:07:39.860Z,17.02
2023-01-01T04:10:17.336Z,16.79
2023-01-01T04:12:47.308Z,16.41
2023-01-01T04:15:15.172Z,16.37
2023-01-01T04:17:44.014Z,16.54
2023-01-01T04:20:12.079Z,16.76
2023-01-01T04:22:39.692Z,16.81
2023-01-01T04:25:08.692Z,16.80
2023-01-01T04:27:36.346Z,16.91
2023-01-01T04:30:04.455Z,17.07
2023-01-01T04:32:31.899Z,16.82
2023-01-01T04:35:00.823Z,16.75
2023-01-01T04:37:28.390Z,16.84
2023-01-01T04:39:55.865Z,16.84
2023-01-01T04:42:23.540Z,17.07
2023-01-01T04:44:50.966Z,16.73
2023-01-01T04:47:18.359Z,16.64
2023-01-01T04:49:45.865Z,16.93
2023-01-01T04:52:14.732Z,17.00
2023-01-01T04:54:42.171Z,17.23
2023-01-01T04:57:09.570Z,17.45
2023-01-01T04:59:37.066Z,17.38
2023-01-01T05:02:04.723Z,17.22
2023-01-01T05:04:32.249Z,16.87
2023-01-01T05:06:59.767Z,17.08
2023-01-01T05:09:28.591Z,16.72
2023-01-01T05:11:56.763Z,17.06
2023-01-01T05:14:24.217Z,16.88
2023-01-01T05:16:51.675Z,16.56
2023-01-01T05:19:19.161Z,16.57
2023-01-01T05:21:46.695Z,16.66
2023-01-01T05:24:14.325Z,16.40
2023-01-01T05:26:46.545Z,16.81
2023-01-01T05:29:17.025Z,16.81
2023-01-01T05:31:45.966Z,16.58
2023-01-01T05:34:13.894Z,16.30
2023-01-01T05:36:41.372Z,16.67
2023-01-01T05:39:10.240Z,16.56
2023-01-01T05:41:37.779Z,16.52
2023-01-01T05:44:09.068Z,17.10
2023-01-01T05:46:37.604Z,16.97
2023-01-01T05:49:05.586Z,16.63
2023-01-01T05:54:02.095Z,16.92
2023-01-01T05:56:29.569Z,16.86
2023-01-01T05:58:57.259Z,16.76
2023-01-01T06:01:28.042Z,16.29
2023-01-01T06:03:57.228Z,16.67
2023-01-01T06:06:26.658Z,16.03
2023-01-01T06:08:55.466Z,16.20
2023-01-01T06:11:23.587Z,15.99
2023-01-01T06:13:53.497Z,16.23
2023-01-01T06:16:21.003Z,16.19
2023-01-01T06:18:49.775Z,16.30
2023-01-01T06:21:19.126Z,15.97
2023-01-01T06:23:46.993Z,16.10
2023-01-01T06:26:16.346Z,16.26
2023-01-01T06:28:44.700Z,16.03
2023-01-01T06:31:15.967Z,16.40
2023-01-01T06:33:44.750Z,16.34
2023-01-01T06:36:15.607Z,16.21
2023-01-01T06:38:44.759Z,16.36
2023-01-01T06:41:15.049Z,16.02
2023-01-01T06:43:43.023Z,16.28
2023-01-01T06:46:15.892Z,16.20
2023-01-01T06:48:43.619Z,15.97
2023-01-01T06:51:14.540Z,15.55
2023-01-01T06:53:42.618Z,16.29
2023-01-01T06:56:10.921Z,16.40
2023-01-01T06:58:38.633Z,16.20
2023-01-01T07:01:08.872Z,16.08
2023-01-01T07:03:36.621Z,16.33
2023-01-01T07:06:04.523Z,16.03
2023-01-01T07:08:33.393Z,15.95
2023-01-01T07:11:00.889Z,15.89
2023-01-01T07:13:29.863Z,16.10
2023-01-01T07:15:57.343Z,16.29
2023-01-01T07:18:25.930Z,15.75
2023-01-01T07:20:54.788Z,16.13
2023-01-01T07:23:22.400Z,16.35
2023-01-01T07:25:52.558Z,16.24
2023-01-01T07:28:20.689Z,16.46
2023-01-01T07:30:48.804Z,16.64
2023-01-01T07:33:18.076Z,16.48
2023-01-01T07:35:46.181Z,16.70
2023-01-01T07:38:14.504Z,16.57
2023-01-01T07:40:42.828Z,16.34
2023-01-01T07:43:12.554Z,16.28
2023-01-01T07:45:40.047Z,16.00
2023-01-01T07:48:10.224Z,16.51
2023-01-01T07:50:38.217Z,16.24
2023-01-01T07:53:05.751Z,15.95
2023-01-01T07:55:34.003Z,16.83
2023-01-01T07:58:01.884Z,16.56
2023-01-01T08:00:31.018Z,16.58
2023-01-01T08:02:58.675Z,16.18
2023-01-01T08:05:27.287Z,16.64
2023-01-01T08:07:54.922Z,16.07
2023-01-01T08:10:22.400Z,16.35
2023-01-01T08:12:50.178Z,16.73
2023-01-01T08:15:18.557Z,16.39
2023-01-01T08:17:47.592Z,16.17
2023-01-01T08:20:15.360Z,16.66
2023-01-01T08:22:42.845Z,16.84
2023-01-01T08:25:10.532Z,16.56
2023-01-01T08:27:38.183Z,16.94
2023-01-01T08:30:06.699Z,16.62
2023-01-01T08:32:34.206Z,16.67
2023-01-01T08:35:02.976Z,16.80
2023-01-01T08:37:30.429Z,16.90
2023-01-01T08:39:57.914Z,16.73
2023-01-01T08:42:25.349Z,16.25
2023-01-01T08:44:52.750Z,16.41
2023-01-01T08:47:22.127Z,16.61
2023-01-01T08:49:49.657Z,16.80
2023-01-01T08:52:18.942Z,16.64
2023-01-01T08:54:46.654Z,16.36
2023-01-01T08:57:14.179Z,17.05
2023-01-01T08:59:41.776Z,16.38
2023-01-01T09:02:09.461Z,16.65
2023-01-01T09:04:37.039Z,16.89
2023-01-01T09:07:05.011Z,16.96
2023-01-01T09:09:33.744Z,16.99
2023-01-01T09:12:06.443Z,16.50
2023-01-01T09:14:34.602Z,16.48
2023-01-01T09:17:02.440Z,16.40
2023-01-01T09:19:29.912Z,16.86
2023-01-01T09:21:57.383Z,16.33
2023-01-01T09:24:25.062Z,16.58
2023-01-01T09:26:53.785Z,16.31
2023-01-01T09:29:21.862Z,16.61
2023-01-01T09:31:49.949Z,16.46
2023-01-01T09:34:18.068Z,16.54
2023-01-01T09:36:46.526Z,16.66
2023-01-01T09:39:15.571Z,16.48
2023-01-01T09:42:02.161Z,17.52
2023-01-01T09:44:54.449Z,18.00
2023-01-01T09:47:27.340Z,17.55
2023-01-01T09:50:00.230Z,18.26
2023-01-01T09:52:36.302Z,18.41
2023-01-01T09:55:12.040Z,18.02
2023-01-01T09:57:40.198Z,17.94
2023-01-01T10:00:15.980Z,18.01
2023-01-01T10:02:56.276Z,18.25
2023-01-01T10:05:33.595Z,18.47
2023-01-01T10:08:08.358Z,18.71
2023-01-01T10:10:41.057Z,18.71
2023-01-01T10:13:22.372Z,18.41
2023-01-01T10:15:58.347Z,17.46
2023-01-01T10:18:29.908Z,17.84
2023-01-01T10:21:03.120Z,17.78
2023-01-01T10:23:35.207Z,17.75
2023-01-01T10:26:10.098Z,18.49
2023-01-01T10:28:43.721Z,18.08
2023-01-01T10:31:20.718Z,18.19
2023-01-01T10:33:48.820Z,17.83
2023-01-01T10:36:20.405Z,18.37
2023-01-01T10:38:49.572Z,17.74
2023-01-01T10:41:20.201Z,17.66
2023-01-01T10:43:49.256Z,16.75
2023-01-01T10:46:29.444Z,17.50
2023-01-01T10:49:08.164Z,16.85
2023-01-01T10:51:38.773Z,16.72
2023-01-01T10:54:06.257Z,16.68
2023-01-01T10:56:43.374Z,16.73
2023-01-01T10:59:36.168Z,16.73
2023-01-01T11:02:20.956Z,17.14
2023-01-01T11:04:49.592Z,17.34
2023-01-01T11:07:27.670Z,17.10
2023-01-01T11:10:03.445Z,17.34
2023-01-01T11:13:04.104Z,16.54
2023-01-01T11:15:31.185Z,17.06
2023-01-01T11:18:06.823Z,17.05
2023-01-01T11:20:34.911Z,17.27
2023-01-01T11:23:19.879Z,17.04
2023-01-01T11:25:58.999Z,16.68
2023-01-01T11:28:27.193Z,16.82
2023-01-01T11:31:04.635Z,17.12
2023-01-01T11:33:36.270Z,17.31
2023-01-01T11:36:06.042Z,16.98
2023-01-01T11:38:33.726Z,17.29
2023-01-01T11:41:05.611Z,17.57
2023-01-01T11:43:39.401Z,17.10
2023-01-01T11:46:10.052Z,17.01
2023-01-01T11:48:43.126Z,17.34
2023-01-01T11:51:28.285Z,17.83
2023-01-01T11:54:10.673Z,17.59
2023-01-01T11:56:39.125Z,17.65
2023-01-01T11:59:16.598Z,17.45
2023-01-01T12:01:48.039Z,17.51
2023-01-01T12:04:23.596Z,17.36
2023-01-01T12:06:56.843Z,17.53
2023-01-01T12:09:28.555Z,17.02
2023-01-01T12:12:01.250Z,17.02
2023-01-01T12:14:36.199Z,17.29
2023-01-01T12:17:06.361Z,17.54
2023-01-01T12:19:40.498Z,17.65
2023-01-01T12:22:15.832Z,17.34
2023-01-01T12:24:43.580Z,17.05
2023-01-01T12:27:19.906Z,17.45
2023-01-01T12:30:11.676Z,17.37
2023-01-01T12:33:05.676Z,17.78
2023-01-01T12:35:53.434Z,17.49
2023-01-01T12:38:38.318Z,17.41
2023-01-01T12:41:12.616Z,17.56
2023-01-01T12:43:47.591Z,17.22
2023-01-01T12:46:43.781Z,17.46
2023-01-01T12:49:42.924Z,17.81
2023-01-01T12:52:31.343Z,17.83
2023-01-01T12:55:37.385Z,17.63
2023-01-01T12:58:13.137Z,17.87
2023-01-01T13:00:44.208Z,17.67
2023-01-01T13:03:19.422Z,17.36
2023-01-01T13:05:51.356Z,17.17
2023-01-01T13:08:20.486Z,17.70
2023-01-01T13:10:51.425Z,17.44
2023-01-01T13:13:19.539Z,16.94
2023-01-01T13:15:53.348Z,17.14
2023-01-01T13:18:27.257Z,17.35
2023-01-01T13:21:06.901Z,16.97
2023-01-01T13:23:53.114Z,17.42
2023-01-01T13:26:37.961Z,17.30
2023-01-01T13:29:34.980Z,16.86
2023-01-01T13:32:10.458Z,17.31
2023-01-01T13:34:43.414Z,17.56
2023-01-01T13:37:27.389Z,17.49
2023-01-01T13:39:58.377Z,17.78
2023-01-01T13:42:44.356Z,17.59
2023-01-01T13:45:44.117Z,17.17
2023-01-01T13:48:23.979Z,17.28
2023-01-01T13:51:01.952Z,17.10
2023-01-01T13:53:49.021Z,17.13
2023-01-01T13:56:34.567Z,17.54
2023-01-01T13:59:27.000Z,17.08
2023-01-01T14:02:14.044Z,16.84
2023-01-01T14:04:46.346Z,17.31
2023-01-01T14:07:51.236Z,16.65
2023-01-01T14:10:27.836Z,16.74
2023-01-01T14:13:02.468Z,16.17
2023-01-01T14:15:32.169Z,16.98
2023-01-01T14:18:01.511Z,16.96
2023-01-01T14:20:34.986Z,16.68
2023-01-01T14:23:07.920Z,16.23
2023-01-01T14:25:35.899Z,16.97
2023-01-01T14:28:05.048Z,17.05
2023-01-01T14:30:34.095Z,16.57
2023-01-01T14:33:03.462Z,16.66
2023-01-01T14:35:31.174Z,17.08
2023-01-01T14:37:58.655Z,16.48
2023-01-01T14:40:29.185Z,16.92
2023-01-01T14:43:01.018Z,16.93
2023-01-01T14:45:30.784Z,16.91
2023-01-01T14:47:58.609Z,17.09
2023-01-01T14:50:31.252Z,17.25
2023-01-01T14:53:04.786Z,17.33
2023-01-01T14:55:38.956Z,16.24
2023-01-01T14:58:06.609Z,16.62
2023-01-01T15:00:35.929Z,16.59
2023-01-01T15:03:12.102Z,17.07
2023-01-01T15:05:41.354Z,16.32
2023-01-01T15:08:19.884Z,16.84
2023-01-01T15:10:48.088Z,16.68
2023-01-01T15:13:20.066Z,16.66
2023-01-01T15:15:50.672Z,16.78
2023-01-01T15:18:41.257Z,16.92
2023-01-01T15:21:15.320Z,16.88
2023-01-01T15:23:52.140Z,16.23
2023-01-01T15:26:29.085Z,16.86
2023-01-01T15:28:57.591Z,17.03
2023-01-01T15:31:36.016Z,16.40
2023-01-01T15:34:04.791Z,16.45
2023-01-01T15:36:32.523Z,17.03
2023-01-01T15:39:00.554Z,16.85
2023-01-01T15:41:43.396Z,17.08
2023-01-01T15:44:20.089Z,17.14
2023-01-01T15:46:51.621Z,16.56
2023-01-01T15:49:27.241Z,17.08
2023-01-01T15:51:58.174Z,16.50
2023-01-01T15:54:26.115Z,16.34
2023-01-01T15:56:54.600Z,16.15
2023-01-01T15:59:29.021Z,16.03
2023-01-01T16:02:16.753Z,16.12
2023-01-01T16:04:47.674Z,15.59
2023-01-01T16:07:21.006Z,15.82
2023-01-01T16:09:54.976Z,15.07
2023-01-01T16:12:24.662Z,15.22
2023-01-01T16:14:52.208Z,15.51
2023-01-01T16:17:21.972Z,15.38
2023-01-01T16:19:51.502Z,16.12
2023-01-01T16:22:20.388Z,16.24
2023-01-01T16:24:47.908Z,16.38
2023-01-01T16:27:15.334Z,16.36
2023-01-01T16:29:43.665Z,16.29
2023-01-01T16:32:17.654Z,16.22
2023-01-01T16:34:46.678Z,16.30
2023-01-01T16:37:14.157Z,16.29
2023-01-01T16:39:41.563Z,16.15
2023-01-01T16:42:12.147Z,16.00
2023-01-01T16:44:41.812Z,15.98
2023-01-01T16:47:09.583Z,15.86
2023-01-01T16:49:37.204Z,15.98
2023-01-01T16:52:06.249Z,15.93
2023-01-01T16:54:34.729Z,16.06
2023-01-01T16:57:02.245Z,16.17
2023-01-01T16:59:29.676Z,16.21
2023-01-01T17:01:57.163Z,16.00
2023-01-01T17:04:24.604Z,15.97
2023-01-01T17:06:52.019Z,15.80
2023-01-01T17:09:20.815Z,15.85
2023-01-01T17:11:48.254Z,15.85
2023-01-01T17:14:15.661Z,15.99
2023-01-01T17:16:43.145Z,15.91
2023-01-01T17:19:15.734Z,15.75
2023-01-01T17:21:44.520Z,15.75
2023-01-01T17:24:12.215Z,15.63
2023-01-01T17:26:41.051Z,15.79
2023-01-01T17:29:08.494Z,15.61
2023-01-01T17:31:36.264Z,15.62
2023-01-01T17:34:04.105Z,15.64
2023-01-01T17:36:31.874Z,15.75
2023-01-01T17:38:59.328Z,15.91
2023-01-01T17:41:26.725Z,15.85
2023-01-01T17:43:57.088Z,15.91
2023-01-01T17:46:26.687Z,15.90
2023-01-01T17:48:54.296Z,15.84
2023-01-01T17:51:22.214Z,15.82
2023-01-01T17:53:50.358Z,15.66
2023-01-01T17:56:20.052Z,15.57
2023-01-01T17:58:48.588Z,15.56
2023-01-01T18:01:30.579Z,15.50
2023-01-01T18:03:59.661Z,15.61
2023-01-01T18:06:27.280Z,15.51
2023-01-01T18:08:58.808Z,15.60
2023-01-01T18:11:28.545Z,15.65
2023-01-01T18:13:56.049Z,15.56
2023-01-01T18:16:25.719Z,15.62
2023-01-01T18:18:53.251Z,15.51
2023-01-01T18:21:23.576Z,15.73
2023-01-01T18:23:53.080Z,15.64
2023-01-01T18:26:21.400Z,15.64
2023-01-01T18:28:52.227Z,15.60
2023-01-01T18:31:20.116Z,15.51
2023-01-01T18:33:48.915Z,15.61
2023-01-01T18:36:18.425Z,15.61
2023-01-01T18:38:54.175Z,15.09
2023-01-01T18:41:36.476Z,15.38
2023-01-01T18:44:04.017Z,15.17
2023-01-01T18:46:34.098Z,15.35
2023-01-01T18:49:03.054Z,15.40
2023-01-01T18:51:30.453Z,15.29
2023-01-01T18:53:59.536Z,15.38
2023-01-01T18:56:27.083Z,15.50
2023-01-01T18:58:57.219Z,15.50
2023-01-01T19:01:25.507Z,15.29
2023-01-01T19:03:57.019Z,15.24
2023-01-01T19:06:30.111Z,15.37
2023-01-01T19:09:09.407Z,15.49
2023-01-01T19:11:39.191Z,15.29
2023-01-01T19:14:16.260Z,15.35
2023-01-01T19:16:44.396Z,15.39
2023-01-01T19:19:16.888Z,15.40
2023-01-01T19:21:51.276Z,14.88
2023-01-01T19:24:22.759Z,15.28
2023-01-01T19:26:55.362Z,15.44
2023-01-01T19:29:24.250Z,15.27
2023-01-01T19:31:53.477Z,15.63
2023-01-01T19:34:21.456Z,15.58
2023-01-01T19:36:50.889Z,15.33
2023-01-01T19:39:18.712Z,15.64
2023-01-01T19:41:46.884Z,15.31
2023-01-01T19:44:17.299Z,15.32
2023-01-01T19:46:47.674Z,15.77
2023-01-01T19:49:15.185Z,15.46
2023-01-01T19:51:43.926Z,15.85
2023-01-01T19:54:12.774Z,15.94
2023-01-01T19:56:40.193Z,15.60
2023-01-01T19:59:08.276Z,15.44
2023-01-01T20:01:36.066Z,15.70
2023-01-01T20:04:03.850Z,15.73
2023-01-01T20:06:31.496Z,16.04
2023-01-01T20:08:58.928Z,15.84
2023-01-01T20:11:29.729Z,15.96
2023-01-01T20:13:57.227Z,15.51
2023-01-01T20:16:24.683Z,15.95
2023-01-01T20:18:52.184Z,15.94
2023-01-01T20:21:36.955Z,15.76
2023-01-01T20:24:04.809Z,15.50
2023-01-01T20:26:33.594Z,15.82
2023-01-01T20:29:18.472Z,15.81
2023-01-01T20:31:46.051Z,15.92
2023-01-01T20:34:13.493Z,16.08
2023-01-01T20:36:58.539Z,15.65
2023-01-01T20:39:26.097Z,15.43
2023-01-01T20:41:55.029Z,15.64
2023-01-01T20:44:22.513Z,15.64
2023-01-01T20:46:50.049Z,15.91
2023-01-01T20:49:17.954Z,15.94
2023-01-01T20:51:45.899Z,15.95
2023-01-01T20:54:13.449Z,15.92
2023-01-01T20:56:40.996Z,16.04
2023-01-01T20:59:33.553Z,15.95
2023-01-01T21:01:59.845Z,16.09
2023-01-01T21:04:27.460Z,15.87
2023-01-01T21:06:54.917Z,15.96
2023-01-01T21:09:22.336Z,16.00
2023-01-01T21:11:49.762Z,16.00
2023-01-01T21:14:18.757Z,15.71
2023-01-01T21:16:46.387Z,15.79
2023-01-01T21:19:13.903Z,15.53
2023-01-01T21:21:45.123Z,14.95
2023-01-01T21:24:22.644Z,15.73
2023-01-01T21:26:52.265Z,15.63
2023-01-01T21:29:23.141Z,15.90
2023-01-01T21:31:53.289Z,15.94
2023-01-01T21:34:27.364Z,15.93
2023-01-01T21:37:01.184Z,15.96
2023-01-01T21:39:31.578Z,16.08
2023-01-01T21:42:16.583Z,15.26
2023-01-01T21:44:45.375Z,15.77
2023-01-01T21:47:23.306Z,15.96
2023-01-01T21:49:53.572Z,15.97
2023-01-01T21:52:24.974Z,16.02
2023-01-01T21:54:53.230Z,15.87
2023-01-01T21:57:23.223Z,15.73
2023-01-01T21:59:54.135Z,16.01
2023-01-01T22:02:39.113Z,15.38
2023-01-01T22:05:31.344Z,15.70
2023-01-01T22:07:59.786Z,15.97
2023-01-01T22:10:32.242Z,15.64
2023-01-01T22:13:01.451Z,15.69
2023-01-01T22:15:38.912Z,15.60
2023-01-01T22:18:18.588Z,15.88
2023-01-01T22:20:47.113Z,16.12
2023-01-01T22:23:24.555Z,16.00
2023-01-01T22:25:53.488Z,16.14
2023-01-01T22:28:23.979Z,15.68
2023-01-01T22:30:56.215Z,15.57
2023-01-01T22:33:28.799Z,16.37
2023-01-01T22:35:57.839Z,16.96
2023-01-01T22:38:30.749Z,16.69
2023-01-01T22:40:58.369Z,16.44
2023-01-01T22:43:28.819Z,16.58
2023-01-01T22:45:57.630Z,16.63
2023-01-01T22:48:32.619Z,16.60
2023-01-01T22:51:07.134Z,17.07
2023-01-01T22:53:34.665Z,17.20
2023-01-01T22:56:02.112Z,17.34
2023-01-01T22:58:29.571Z,16.90
2023-01-01T23:00:58.312Z,17.07
2023-01-01T23:03:25.813Z,16.68
2023-01-01T23:05:54.530Z,16.43
2023-01-01T23:08:22.351Z,16.40
2023-01-01T23:10:49.867Z,16.30
2023-01-01T23:13:46.221Z,16.27
2023-01-01T23:16:15.006Z,16.23
2023-01-01T23:18:46.203Z,16.03
2023-01-01T23:21:24.385Z,16.13
2023-01-01T23:23:56.122Z,16.09
2023-01-01T23:26:24.205Z,15.81
2023-01-01T23:28:52.682Z,16.01
2023-01-01T23:31:25.487Z,16.07
2023-01-01T23:33:54.022Z,15.95
2023-01-01T23:36:21.603Z,15.72
2023-01-01T23:38:49.044Z,15.62
2023-01-01T23:41:16.540Z,15.88
2023-01-01T23:43:44.269Z,15.92
2023-01-01T23:46:12.583Z,15.88
2023-01-01T23:48:41.900Z,15.89
2023-01-01T23:51:09.657Z,15.85
2023-01-01T23:53:37.216Z,15.84
2023-01-01T23:56:04.990Z,15.92
2023-01-01T23:58:32.400Z,15.54
